Rolling Meadows, IL

7:49 PM CDT on April 27, 2015 (GMT -0500)
Palatine, South | | Change Station
CLOSE
Current Station
Personal Weather Station
Location: Palatine, IL
Elevation: 741 ft
Nearby Weather Stations

Elev 741 ft 42.09 °N, 88.05 °W | Updated 9 minutes ago

Clear
Clear
48.0 °F
Feels Like 48 °F
N
0.0
Wind Variable Wind from ENE

Today
High -- | Low -- °F
--% Chance of Precip.
Yesterday
High -- | Low -- °F
Precip. -- in
5:53 AM 7:46 PM
Waxing Gibbous, 69% visible
Pressure 30.15 in
Visibility 10.0 miles
Clouds Clear
Windchill 48 °F
Dew Point -0 °F
Humidity 13%
Rainfall 0.00 in
Snow Depth Not available.
UV 0 out of 12
Pollen 10.00 out of 12
Air Quality Not available.
Flu Activity Regional
METAR KPWK 272352Z 05007KT 10SM CLR 09/00 A3014 RMK AO2 SLP209 T00890000 10111 20083 58004

More Conditions Fewer Conditions

Pressure 30.15 in
Visibility 10.0 miles
Clouds Clear
Windchill 48 °F
Dew Point -0 °F
Humidity 13%
Rainfall 0.00 in
Snow Depth Not available.
UV 0 out of 12
Pollen 10.00 out of 12
Air Quality Not available.
Flu Activity Regional
METAR KPWK 272352Z 05007KT 10SM CLR 09/00 A3014 RMK AO2 SLP209 T00890000 10111 20083 58004

More Conditions Fewer Conditions

10-Day Weather Forecast

Almanac

Astronomy

Apr. 27, 2015 Rise Set
Actual Time
Civil Twilight
Nautical Twilight
Astronomical Twilight
Moon
Length of Visible Light
Length of Day
Tomorrow will be .
, % of the Moon is Illuminated

Today's Extremes

State Highs State Lows

Community

WunderPhotos

Upload Photos

1,817,497 photos uploaded!

WunderBlogs® & News

Nearby

Air Quality

  Air Quality AQ Index Pollutant
Not available.

Snow Depth

Station Depth Elevation

Earthquake Activity

City Distance Mag. Time & Date
Minimum magnitude displayed is 2.5.

Coastal Water Temperatures

Place Temperature

Stations

Nearby Weather Stations

Station Location Temp. Windchill Dew Point Humidity Wind Precip. Elev Updated Type